Baltimore, Maryland
Traffic Map
Current Weather Conditions
Baltimore, Maryland
Few Clouds
Few Clouds
71°
Feels Like: 71°
Wind Chill: 71° Ceiling: Unl
Heat Index: 71° Visibility: 10mi
Dew Point: 52° Wind: 13mph
Humidity: 51% Direction: 210° (SSW)
Pressure: 29.61in Gusts: 23mph
Raw Report DataKBWI 241954Z 21011G20KT 10SM FEW035 22/11 A2961 RMK AO2 PK WND 21026/1932 SLP027 T02170111
Traffic Incident Summary
Active as of:
Severity:
Category:
InformationThere was an issue retrieving the traffic information for this location. Please try a different location or try again shortly.
Advertisements
Track Severe Weather on mobile